Time;durP1;ratioP1;P1;durP2;ratioP2;P2;SDS_P1;SDS_P2;PMS_P1;PMS_P2;Temp;Humidity;BMP_temperature;BMP_pressure;BME280_temperature;BME280_humidity;BME280_pressure;Samples;Min_cycle;Max_cycle;Signal;HPM_P1;HPM_P2
2023/10/11 00:00:35;;;;;;;8.10;3.37;;;18.70;99.90;;;;;;5021648;28;20601;-80
2023/10/11 00:03:05;;;;;;;3.97;3.50;;;18.60;99.90;;;;;;5008174;28;20608;-81
2023/10/11 00:05:39;;;;;;;5.43;2.50;;;18.70;99.90;;;;;;5036846;28;20590;-81
2023/10/11 00:08:08;;;;;;;4.33;2.40;;;18.70;99.90;;;;;;5038355;28;20627;-79
2023/10/11 00:10:42;;;;;;;5.43;3.50;;;18.70;99.90;;;;;;4998381;28;20600;-80
2023/10/11 00:13:12;;;;;;;4.67;2.50;;;18.70;99.90;;;;;;5022698;28;20619;-79
2023/10/11 00:15:38;;;;;;;4.00;2.27;;;18.70;99.90;;;;;;5040339;28;20599;-78
2023/10/11 00:18:04;;;;;;;5.50;2.80;;;18.70;99.90;;;;;;5037690;28;20916;-78
2023/10/11 00:20:51;;;;;;;5.27;3.30;;;18.70;99.90;;;;;;5007921;28;20611;-80
2023/10/11 00:23:21;;;;;;;3.13;2.33;;;18.70;99.90;;;;;;4996316;28;20627;-77
2023/10/11 00:25:50;;;;;;;4.87;2.27;;;18.70;99.90;;;;;;4995024;28;20588;-78
2023/10/11 00:28:17;;;;;;;5.80;2.60;;;18.70;99.90;;;;;;5023003;28;20609;-80
2023/10/11 00:30:49;;;;;;;4.07;2.70;;;18.70;99.90;;;;;;5015362;28;20670;-80
2023/10/11 00:33:15;;;;;;;5.43;2.03;;;18.70;99.90;;;;;;5008738;28;21134;-78
2023/10/11 00:35:48;;;;;;;4.93;2.30;;;18.70;99.90;;;;;;5009890;28;20584;-79
2023/10/11 00:38:26;;;;;;;6.37;2.90;;;18.70;99.90;;;;;;4990560;28;20543;-78
2023/10/11 00:41:12;;;;;;;5.43;2.50;;;18.70;99.90;;;;;;5013096;28;20584;-79
2023/10/11 00:43:55;;;;;;;5.87;3.00;;;18.60;99.90;;;;;;5009479;28;20600;-80
2023/10/11 00:46:35;;;;;;;4.87;3.23;;;18.70;99.90;;;;;;4973461;28;20581;-79
2023/10/11 00:51:31;;;;;;;4.37;2.47;;;18.70;99.90;;;;;;5008438;28;20569;-79
2023/10/11 00:53:58;;;;;;;7.27;3.10;;;18.70;99.90;;;;;;4975591;28;20578;-79
2023/10/11 00:56:31;;;;;;;5.80;2.50;;;18.70;99.90;;;;;;5030725;28;21194;-79
2023/10/11 00:58:58;;;;;;;4.50;2.60;;;18.60;99.90;;;;;;5003395;28;20790;-80
2023/10/11 01:01:25;;;;;;;6.67;2.90;;;18.70;99.90;;;;;;5012769;28;20591;-79
2023/10/11 01:03:54;;;;;;;4.20;2.60;;;18.60;99.90;;;;;;5010317;28;20936;-80
2023/10/11 01:06:25;;;;;;;7.23;2.83;;;18.60;99.90;;;;;;5014343;28;20585;-79
2023/10/11 01:08:52;;;;;;;5.43;2.70;;;18.60;99.90;;;;;;5002510;28;20660;-80
2023/10/11 01:11:18;;;;;;;6.07;2.90;;;18.60;99.90;;;;;;5018992;28;20607;-81
2023/10/11 01:13:50;;;;;;;5.90;2.60;;;18.60;99.90;;;;;;5005397;28;20628;-79
2023/10/11 01:16:28;;;;;;;4.07;2.47;;;18.60;99.90;;;;;;4984432;28;20994;-80
2023/10/11 01:18:54;;;;;;;4.80;2.73;;;18.60;99.90;;;;;;4999412;28;21210;-80
2023/10/11 01:21:20;;;;;;;5.90;2.10;;;18.50;99.90;;;;;;5030304;28;20606;-80
2023/10/11 01:23:46;;;;;;;6.97;2.87;;;18.50;99.90;;;;;;5021115;28;20205;-80
2023/10/11 01:26:12;;;;;;;5.27;3.37;;;18.50;99.90;;;;;;5030711;28;20593;-80
2023/10/11 01:28:42;;;;;;;4.27;2.67;;;18.40;99.90;;;;;;5010300;28;20228;-80
2023/10/11 01:31:09;;;;;;;5.03;2.83;;;18.40;99.90;;;;;;5010360;28;20178;-79
2023/10/11 01:33:42;;;;;;;5.07;2.90;;;18.30;99.90;;;;;;5022655;28;20595;-80
2023/10/11 01:36:10;;;;;;;6.80;3.33;;;18.20;99.90;;;;;;5019741;28;20645;-79
2023/10/11 01:38:48;;;;;;;5.80;3.03;;;18.20;99.90;;;;;;5027821;28;20609;-79
2023/10/11 01:41:21;;;;;;;7.00;2.70;;;18.10;99.90;;;;;;5024988;28;20581;-79
2023/10/11 01:43:49;;;;;;;9.60;2.93;;;18.00;99.90;;;;;;5000407;28;20623;-80
2023/10/11 01:46:35;;;;;;;4.47;2.67;;;18.00;99.90;;;;;;5011222;28;20590;-80
2023/10/11 01:49:03;;;;;;;7.67;3.30;;;18.00;99.90;;;;;;4997001;28;20616;-80
2023/10/11 01:51:38;;;;;;;5.17;3.10;;;17.90;99.90;;;;;;5018712;28;20632;-80
2023/10/11 01:54:04;;;;;;;7.40;3.57;;;17.90;99.90;;;;;;5016786;28;20581;-80
2023/10/11 01:56:30;;;;;;;5.90;3.87;;;17.80;99.90;;;;;;5012282;28;20788;-79
2023/10/11 01:58:56;;;;;;;6.00;3.10;;;17.80;99.90;;;;;;5014086;28;20632;-79
2023/10/11 02:01:30;;;;;;;5.53;4.03;;;17.70;99.90;;;;;;5007919;28;20592;-79
2023/10/11 02:03:58;;;;;;;9.63;3.37;;;17.70;99.90;;;;;;5007047;28;20826;-79
2023/10/11 02:06:25;;;;;;;10.57;4.27;;;17.70;99.90;;;;;;4996017;28;20593;-79
2023/10/11 02:08:52;;;;;;;8.87;3.20;;;17.70;99.90;;;;;;5012059;28;20632;-80
2023/10/11 02:11:25;;;;;;;8.30;3.63;;;17.70;99.90;;;;;;5003672;28;20601;-79
2023/10/11 02:13:52;;;;;;;6.00;3.97;;;17.70;99.90;;;;;;5016698;28;20688;-80
2023/10/11 02:16:19;;;;;;;6.43;3.57;;;17.70;99.90;;;;;;5020240;28;20637;-79
2023/10/11 02:18:51;;;;;;;7.07;3.80;;;17.70;99.90;;;;;;5003145;28;20609;-80
2023/10/11 02:21:19;;;;;;;6.00;3.13;;;17.60;99.90;;;;;;5007021;28;20615;-80
2023/10/11 02:23:46;;;;;;;7.00;3.40;;;17.60;99.90;;;;;;5021452;28;20605;-80
2023/10/11 02:26:18;;;;;;;7.97;3.10;;;17.60;99.90;;;;;;4997188;28;20640;-80
2023/10/11 02:28:45;;;;;;;5.80;3.60;;;17.60;99.90;;;;;;5023983;28;20640;-80
2023/10/11 02:31:20;;;;;;;5.27;2.97;;;17.50;99.90;;;;;;5033777;28;20588;-80
2023/10/11 02:33:47;;;;;;;6.67;2.90;;;17.50;99.90;;;;;;5028792;28;20607;-79
2023/10/11 02:36:19;;;;;;;6.30;2.97;;;17.50;99.90;;;;;;5013613;28;20624;-80
2023/10/11 02:38:50;;;;;;;7.23;4.17;;;17.40;99.90;;;;;;4990876;28;20629;-79
2023/10/11 02:41:25;;;;;;;6.47;3.70;;;17.40;99.90;;;;;;5011990;28;20592;-80
2023/10/11 02:43:52;;;;;;;7.60;3.37;;;17.40;99.90;;;;;;5015260;28;20592;-80
2023/10/11 02:46:24;;;;;;;7.40;3.53;;;17.30;99.90;;;;;;4997376;28;20608;-80
2023/10/11 02:49:38;;;;;;;4.53;3.00;;;17.30;99.90;;;;;;5022669;28;20637;-80
2023/10/11 02:51:51;;;;;;;8.33;4.20;;;17.30;99.90;;;;;;5028401;28;20616;-80
2023/10/11 02:54:17;;;;;;;6.80;3.57;;;17.30;99.90;;;;;;5013892;28;20584;-80
2023/10/11 02:56:46;;;;;;;7.17;4.17;;;17.30;99.90;;;;;;5016092;28;20624;-80
2023/10/11 02:59:22;;;;;;;8.90;4.27;;;17.30;99.90;;;;;;5016322;28;20664;-80
2023/10/11 03:02:04;;;;;;;7.60;4.37;;;17.30;99.90;;;;;;4998813;28;20596;-80
2023/10/11 03:04:35;;;;;;;7.47;3.67;;;17.30;99.90;;;;;;5008358;28;20596;-76
2023/10/11 03:07:01;;;;;;;6.40;3.77;;;17.20;99.90;;;;;;4996036;28;20612;-76
2023/10/11 03:09:28;;;;;;;5.13;2.97;;;17.30;99.90;;;;;;4988189;28;20707;-76
2023/10/11 03:12:05;;;;;;;4.87;3.30;;;17.20;99.90;;;;;;4995970;28;20588;-76
2023/10/11 03:14:41;;;;;;;8.00;4.53;;;17.30;99.90;;;;;;5012320;28;20592;-76
2023/10/11 03:17:13;;;;;;;7.70;3.07;;;17.20;99.90;;;;;;5029928;28;20670;-76
2023/10/11 03:19:42;;;;;;;5.53;3.07;;;17.20;99.90;;;;;;4995696;28;20659;-76
2023/10/11 03:22:09;;;;;;;6.53;3.80;;;17.20;99.90;;;;;;5012108;28;20942;-76
2023/10/11 03:24:40;;;;;;;7.27;4.00;;;17.10;99.90;;;;;;4996809;28;20703;-76
2023/10/11 03:27:10;;;;;;;6.63;3.10;;;17.10;99.90;;;;;;5015249;28;20614;-76
2023/10/11 03:29:36;;;;;;;8.47;3.40;;;17.10;99.90;;;;;;4999258;28;20631;-76
2023/10/11 03:32:04;;;;;;;6.03;4.10;;;17.00;99.90;;;;;;4999268;28;20587;-76
2023/10/11 03:34:29;;;;;;;5.50;2.87;;;17.10;99.90;;;;;;5032583;28;20560;-76
2023/10/11 03:36:59;;;;;;;4.83;3.30;;;17.10;99.90;;;;;;4982840;28;20624;-76
2023/10/11 03:39:39;;;;;;;8.20;3.73;;;17.10;99.90;;;;;;5011675;28;20794;-76
2023/10/11 03:44:45;;;;;;;6.47;3.50;;;17.20;99.90;;;;;;5015279;28;20597;-76
2023/10/11 03:47:14;;;;;;;5.60;3.20;;;17.20;99.90;;;;;;5032959;28;20646;-76
2023/10/11 03:52:22;;;;;;;7.67;3.27;;;17.20;99.90;;;;;;5015287;28;21163;-76
2023/10/11 03:55:22;;;;;;;8.10;3.23;;;17.20;99.90;;;;;;5015182;28;20671;-75
2023/10/11 03:57:41;;;;;;;6.90;3.03;;;17.20;99.90;;;;;;5006223;28;20727;-76
2023/10/11 04:02:46;;;;;;;4.50;2.60;;;17.20;99.90;;;;;;4984693;28;20577;-78
2023/10/11 04:05:15;;;;;;;5.10;3.27;;;17.20;99.90;;;;;;4997293;28;20585;-78
2023/10/11 04:07:44;;;;;;;7.27;3.67;;;17.20;99.90;;;;;;5015835;28;20178;-77
2023/10/11 04:10:10;;;;;;;8.03;3.53;;;17.20;99.90;;;;;;5014055;28;20576;-77
2023/10/11 04:12:42;;;;;;;7.43;4.27;;;17.20;99.90;;;;;;4995504;28;20600;-77
2023/10/11 04:15:24;;;;;;;9.83;3.40;;;17.30;99.90;;;;;;4996751;28;20591;-78
2023/10/11 04:17:50;;;;;;;6.50;3.07;;;17.30;99.90;;;;;;5017776;28;20819;-78
2023/10/11 04:20:21;;;;;;;7.43;3.57;;;17.30;99.90;;;;;;4995279;28;20712;-78
2023/10/11 04:23:01;;;;;;;6.23;3.60;;;17.30;99.90;;;;;;5007066;28;20593;-77
2023/10/11 04:25:27;;;;;;;8.20;3.40;;;17.40;99.90;;;;;;5016481;28;20585;-77
2023/10/11 04:27:57;;;;;;;11.27;3.60;;;17.30;99.90;;;;;;5032192;28;20664;-77
2023/10/11 04:30:41;;;;;;;5.93;3.40;;;17.30;99.90;;;;;;5031819;28;21109;-78
2023/10/11 04:33:12;;;;;;;5.63;3.73;;;17.40;99.90;;;;;;5004993;28;20601;-77
2023/10/11 04:35:42;;;;;;;4.70;3.73;;;17.40;99.90;;;;;;5012114;28;20605;-77
2023/10/11 04:38:11;;;;;;;5.13;3.40;;;17.40;99.90;;;;;;4994906;28;20647;-77
2023/10/11 04:40:51;;;;;;;7.07;3.90;;;17.40;99.90;;;;;;4994909;28;20589;-76
2023/10/11 04:43:21;;;;;;;7.80;4.60;;;17.40;99.90;;;;;;5014055;28;20682;-77
2023/10/11 04:46:00;;;;;;;6.30;3.70;;;17.40;99.90;;;;;;4995079;28;20593;-77
2023/10/11 04:48:30;;;;;;;7.07;3.50;;;17.30;99.90;;;;;;5012657;28;20693;-77
2023/10/11 04:51:08;;;;;;;6.30;4.60;;;17.30;99.90;;;;;;4979302;28;20598;-78
2023/10/11 04:54:18;;;;;;;7.57;4.10;;;17.30;99.90;;;;;;4975607;28;20586;-77
2023/10/11 04:59:13;;;;;;;8.67;4.07;;;17.20;99.90;;;;;;5001797;28;21179;-77
2023/10/11 05:01:55;;;;;;;9.83;5.00;;;17.20;99.90;;;;;;4995007;28;20668;-77
2023/10/11 05:04:28;;;;;;;6.43;4.23;;;17.20;99.90;;;;;;4994734;28;20613;-77
2023/10/11 05:06:55;;;;;;;9.10;4.93;;;17.20;99.90;;;;;;4978580;28;20577;-78
2023/10/11 05:09:29;;;;;;;7.40;4.93;;;17.10;99.90;;;;;;4994163;28;20632;-77
2023/10/11 05:12:19;;;;;;;6.57;4.10;;;17.10;99.90;;;;;;5012897;28;21060;-77
2023/10/11 05:22:49;;;;;;;6.63;3.53;;;17.10;99.90;;;;;;4981604;28;20573;-75
2023/10/11 05:27:51;;;;;;;8.90;4.17;;;17.10;99.90;;;;;;5011998;28;20589;-76
2023/10/11 05:30:28;;;;;;;6.83;3.80;;;17.10;99.90;;;;;;4994377;28;21014;-76
2023/10/11 05:32:58;;;;;;;6.03;3.67;;;17.10;99.90;;;;;;4994606;28;20588;-76
2023/10/11 05:35:43;;;;;;;8.50;3.50;;;17.10;99.90;;;;;;5011647;28;21005;-76
2023/10/11 05:51:52;;;;;;;8.27;3.93;;;17.10;99.90;;;;;;5011592;28;20580;-77
2023/10/11 05:54:21;;;;;;;10.03;4.00;;;17.10;99.90;;;;;;4994705;28;21056;-77
2023/10/11 05:56:49;;;;;;;7.63;3.80;;;17.10;99.90;;;;;;4995481;28;20653;-77
2023/10/11 05:59:15;;;;;;;5.33;3.27;;;17.10;99.90;;;;;;4994889;28;20724;-77
2023/10/11 06:01:44;;;;;;;11.33;3.70;;;17.20;99.90;;;;;;4993869;28;20707;-77
2023/10/11 06:04:13;;;;;;;5.53;3.13;;;17.20;99.90;;;;;;5013425;28;20205;-78
2023/10/11 06:06:42;;;;;;;11.03;4.30;;;17.20;99.90;;;;;;5031030;28;20576;-77
2023/10/11 06:09:18;;;;;;;6.93;3.20;;;17.20;99.90;;;;;;5029864;28;20619;-76
2023/10/11 06:11:50;;;;;;;6.83;3.30;;;17.30;99.90;;;;;;4999743;28;20591;-75
2023/10/11 06:14:17;;;;;;;7.37;2.87;;;17.30;99.90;;;;;;4993302;28;21009;-76
2023/10/11 06:16:49;;;;;;;8.17;4.37;;;17.40;99.90;;;;;;4993220;28;21225;-76
2023/10/11 06:19:18;;;;;;;5.90;3.50;;;17.40;99.90;;;;;;5010097;28;20965;-76
2023/10/11 06:22:22;;;;;;;7.13;4.13;;;17.50;99.90;;;;;;5010913;28;20595;-76
2023/10/11 06:24:44;;;;;;;8.57;3.63;;;17.50;99.90;;;;;;5007042;28;20589;-76
2023/10/11 06:29:41;;;;;;;8.37;3.93;;;17.60;99.90;;;;;;4997199;28;20654;-75
2023/10/11 06:32:11;;;;;;;6.20;3.57;;;17.70;99.90;;;;;;5012969;28;20949;-75
2023/10/11 06:34:38;;;;;;;5.73;4.00;;;17.80;99.90;;;;;;5016238;28;20631;-75
2023/10/11 06:37:06;;;;;;;7.97;2.60;;;17.80;99.90;;;;;;5030578;28;20628;-76
2023/10/11 06:45:05;;;;;;;9.10;4.00;;;18.00;99.90;;;;;;4975399;28;20999;-74
2023/10/11 06:47:35;;;;;;;10.60;3.90;;;18.10;99.90;;;;;;4996623;28;20600;-75
2023/10/11 06:50:10;;;;;;;6.20;3.90;;;18.10;99.90;;;;;;5030006;28;20612;-75
2023/10/11 06:52:43;;;;;;;8.63;4.13;;;18.20;99.90;;;;;;5012451;28;20588;-75
2023/10/11 06:55:14;;;;;;;8.50;4.47;;;18.20;99.90;;;;;;5011934;28;20946;-75
2023/10/11 06:57:41;;;;;;;10.83;4.70;;;18.30;99.90;;;;;;5012267;28;20624;-75
2023/10/11 07:03:09;;;;;;;8.43;4.60;;;18.40;99.90;;;;;;4994064;28;20580;-74
2023/10/11 07:05:46;;;;;;;8.00;4.20;;;18.50;99.90;;;;;;4999901;28;20592;-75
2023/10/11 07:08:19;;;;;;;9.50;4.20;;;18.60;99.90;;;;;;5028108;28;20193;-75
2023/10/11 07:11:02;;;;;;;8.10;4.10;;;18.60;99.90;;;;;;5024945;28;20597;-73
2023/10/11 07:16:13;;;;;;;10.07;3.63;;;18.80;99.90;;;;;;5017285;28;20620;-74
2023/10/11 07:18:43;;;;;;;7.53;3.83;;;18.90;99.90;;;;;;5022062;28;20620;-74
2023/10/11 07:21:09;;;;;;;8.80;3.70;;;19.10;99.90;;;;;;5031402;28;20181;-74
2023/10/11 07:23:55;;;;;;;7.43;3.50;;;19.20;99.90;;;;;;5033719;28;20576;-75
2023/10/11 07:29:00;;;;;;;6.27;3.53;;;19.40;99.90;;;;;;4999394;28;20626;-74
2023/10/11 07:31:32;;;;;;;13.00;4.67;;;19.60;99.90;;;;;;5015910;28;20642;-75
2023/10/11 07:34:05;;;;;;;5.03;3.23;;;19.70;99.90;;;;;;5013086;28;20596;-73
2023/10/11 07:36:32;;;;;;;10.60;4.00;;;19.80;99.90;;;;;;5022895;28;20735;-74
2023/10/11 07:39:14;;;;;;;10.60;3.97;;;19.90;99.90;;;;;;5027160;28;20669;-75
2023/10/11 07:41:43;;;;;;;6.90;3.33;;;19.90;99.90;;;;;;5015441;28;20592;-75
2023/10/11 07:44:10;;;;;;;9.17;4.47;;;20.10;99.90;;;;;;5033058;28;20587;-75
2023/10/11 07:46:40;;;;;;;6.80;4.17;;;20.20;99.90;;;;;;5012221;28;20597;-76
2023/10/11 07:49:06;;;;;;;7.20;3.60;;;20.30;99.90;;;;;;5022817;28;20612;-74
2023/10/11 07:51:39;;;;;;;6.33;3.90;;;20.40;99.90;;;;;;4995502;28;20600;-74
2023/10/11 07:54:11;;;;;;;6.80;3.63;;;20.50;99.90;;;;;;5008314;28;20600;-75
2023/10/11 07:56:37;;;;;;;6.97;3.20;;;20.70;99.90;;;;;;5006627;28;20699;-75
2023/10/11 07:59:12;;;;;;;6.67;3.50;;;21.00;99.90;;;;;;5014504;28;20626;-75
2023/10/11 08:01:44;;;;;;;8.13;4.37;;;21.40;99.90;;;;;;5023535;28;20174;-75
2023/10/11 08:04:18;;;;;;;10.20;4.20;;;21.90;99.90;;;;;;5028961;28;20681;-76
2023/10/11 08:06:44;;;;;;;8.07;3.77;;;22.50;99.90;;;;;;5032886;28;20596;-76
2023/10/11 08:09:18;;;;;;;7.50;3.20;;;23.10;99.90;;;;;;5032336;28;20620;-75
2023/10/11 08:11:45;;;;;;;8.13;3.67;;;23.70;99.90;;;;;;4996452;28;20735;-76
2023/10/11 08:14:22;;;;;;;10.00;3.43;;;24.20;99.90;;;;;;5003022;28;20597;-75
2023/10/11 08:16:51;;;;;;;7.50;5.10;;;24.70;99.90;;;;;;4984507;28;20627;-76
2023/10/11 08:19:18;;;;;;;11.80;4.13;;;25.10;99.90;;;;;;5013444;28;20612;-75
2023/10/11 08:21:57;;;;;;;7.40;3.50;;;25.50;99.90;;;;;;5014718;28;20682;-76
2023/10/11 08:24:27;;;;;;;5.40;3.27;;;25.80;99.90;;;;;;5017816;28;20590;-76
2023/10/11 08:27:08;;;;;;;6.73;3.53;;;26.30;99.90;;;;;;5014900;28;20591;-76
2023/10/11 08:29:35;;;;;;;10.50;3.70;;;26.80;99.90;;;;;;5011607;28;20706;-76
2023/10/11 08:32:06;;;;;;;10.87;3.57;;;27.10;99.90;;;;;;4993575;28;20607;-75
2023/10/11 08:34:32;;;;;;;6.03;2.90;;;27.20;99.90;;;;;;5000412;28;21278;-75
2023/10/11 08:36:58;;;;;;;6.93;3.33;;;27.30;99.90;;;;;;5027108;28;20983;-76
2023/10/11 08:42:30;;;;;;;7.13;3.17;;;27.50;98.80;;;;;;4990031;28;20825;-75
2023/10/11 08:45:00;;;;;;;8.03;3.23;;;27.70;98.40;;;;;;5014063;28;20853;-76
2023/10/11 08:47:29;;;;;;;9.20;2.73;;;27.70;97.40;;;;;;5003258;28;20684;-74
2023/10/11 08:49:59;;;;;;;6.87;3.10;;;27.80;97.80;;;;;;4999192;28;20600;-76
2023/10/11 08:52:29;;;;;;;8.13;3.10;;;28.10;97.30;;;;;;5013621;28;20585;-75
2023/10/11 08:54:55;;;;;;;6.13;2.90;;;28.50;97.40;;;;;;5004296;28;20593;-75
2023/10/11 08:57:25;;;;;;;7.37;2.73;;;28.70;96.10;;;;;;5013828;28;20638;-75
2023/10/11 08:59:58;;;;;;;8.30;3.50;;;29.00;95.90;;;;;;5013672;28;21055;-76
2023/10/11 09:02:27;;;;;;;9.20;2.87;;;29.40;95.70;;;;;;5034794;28;21165;-75
2023/10/11 09:07:51;;;;;;;7.93;2.80;;;30.00;94.80;;;;;;5002103;28;20597;-75
2023/10/11 09:10:33;;;;;;;7.20;3.03;;;30.20;94.00;;;;;;5046322;23;20720;-76
2023/10/11 09:13:08;;;;;;;6.23;2.33;;;30.30;92.20;;;;;;5036369;28;20638;-74
2023/10/11 09:15:44;;;;;;;4.60;2.23;;;30.60;92.30;;;;;;5013751;28;20647;-75
2023/10/11 09:18:14;;;;;;;5.87;2.90;;;30.80;91.50;;;;;;5033797;28;20679;-75
2023/10/11 09:20:56;;;;;;;6.17;2.77;;;31.00;91.50;;;;;;5051162;28;20640;-75
2023/10/11 09:23:36;;;;;;;8.60;3.00;;;31.40;91.00;;;;;;5033072;28;21106;-75
2023/10/11 09:26:02;;;;;;;5.00;2.63;;;32.00;90.40;;;;;;5030969;28;20601;-75
2023/10/11 09:28:33;;;;;;;4.10;2.20;;;32.50;90.50;;;;;;5015641;28;20596;-75
2023/10/11 09:31:14;;;;;;;4.90;2.70;;;33.10;90.00;;;;;;5042843;28;20686;-76
2023/10/11 09:33:53;;;;;;;4.40;2.20;;;33.70;87.50;;;;;;5032585;28;20650;-75
2023/10/11 09:36:21;;;;;;;7.23;2.37;;;34.20;85.60;;;;;;5014382;28;20584;-75
2023/10/11 09:38:54;;;;;;;4.67;2.13;;;34.60;83.20;;;;;;5012928;28;20635;-75
2023/10/11 09:41:24;;;;;;;8.87;2.50;;;35.10;81.40;;;;;;5034539;28;20580;-76
2023/10/11 09:43:54;;;;;;;4.77;2.70;;;35.50;79.50;;;;;;5017186;28;20595;-75
2023/10/11 09:46:23;;;;;;;6.30;2.07;;;35.90;77.60;;;;;;5027702;28;20592;-75
2023/10/11 09:48:49;;;;;;;6.03;2.97;;;36.30;75.30;;;;;;5035524;28;20614;-75
2023/10/11 09:51:16;;;;;;;7.10;2.40;;;36.50;73.20;;;;;;5035575;28;20694;-76
2023/10/11 09:53:49;;;;;;;5.53;2.70;;;36.80;70.90;;;;;;5042493;28;20204;-76
2023/10/11 09:56:51;;;;;;;4.83;3.17;;;37.10;69.50;;;;;;5025655;28;20587;-74
2023/10/11 09:59:46;;;;;;;5.00;3.20;;;37.40;68.10;;;;;;5051972;28;20665;-75
2023/10/11 10:02:34;;;;;;;6.13;4.00;;;37.80;66.70;;;;;;5033579;28;20632;-75
2023/10/11 10:05:04;;;;;;;6.40;2.57;;;38.10;64.40;;;;;;5034184;28;20586;-75
2023/10/11 10:10:07;;;;;;;4.93;2.60;;;38.30;60.90;;;;;;5016408;28;20762;-75
2023/10/11 10:12:40;;;;;;;4.10;2.10;;;38.30;59.80;;;;;;5029882;28;20681;-75
2023/10/11 10:15:26;;;;;;;4.70;2.43;;;38.30;59.20;;;;;;5049119;28;20575;-75
2023/10/11 10:17:56;;;;;;;3.97;2.23;;;38.30;58.20;;;;;;5026981;28;20659;-75
2023/10/11 10:20:43;;;;;;;3.43;1.70;;;38.20;56.50;;;;;;5049636;28;20615;-75
2023/10/11 10:23:15;;;;;;;7.27;2.20;;;38.10;56.20;;;;;;5053945;28;20583;-75
2023/10/11 10:25:48;;;;;;;7.87;2.80;;;38.00;53.40;;;;;;5055789;28;20579;-76
2023/10/11 10:28:34;;;;;;;5.10;2.83;;;37.80;52.70;;;;;;5029987;28;20603;-75
2023/10/11 10:31:11;;;;;;;5.00;2.70;;;37.60;52.70;;;;;;5043573;28;20625;-73
2023/10/11 10:33:42;;;;;;;4.80;2.53;;;37.40;52.60;;;;;;5033141;28;20942;-74
2023/10/11 10:36:28;;;;;;;9.27;2.30;;;37.30;52.30;;;;;;5054357;28;20594;-74
2023/10/11 10:39:00;;;;;;;4.70;2.37;;;37.20;52.20;;;;;;5019502;28;20611;-74
2023/10/11 10:41:31;;;;;;;4.73;1.70;;;37.10;51.80;;;;;;5036328;28;20621;-74
2023/10/11 10:44:10;;;;;;;9.30;2.23;;;37.00;51.30;;;;;;5025925;28;20665;-75
2023/10/11 10:46:59;;;;;;;5.63;2.10;;;36.90;50.70;;;;;;5017501;28;20635;-74
2023/10/11 10:49:42;;;;;;;5.60;3.07;;;36.90;50.60;;;;;;5033960;28;21035;-74
2023/10/11 10:52:17;;;;;;;7.10;2.40;;;36.80;49.80;;;;;;5045723;28;20583;-74
2023/10/11 10:55:03;;;;;;;4.43;2.00;;;36.80;49.50;;;;;;5034973;28;20868;-74
2023/10/11 10:57:31;;;;;;;5.93;2.33;;;36.80;49.30;;;;;;5035825;28;20669;-74
2023/10/11 10:59:59;;;;;;;5.33;1.47;;;36.70;49.50;;;;;;5053502;28;20603;-74
2023/10/11 11:02:24;;;;;;;8.40;2.77;;;36.60;49.20;;;;;;5036287;28;20574;-74
2023/10/11 11:04:50;;;;;;;4.13;1.70;;;36.50;49.10;;;;;;5053899;28;21318;-74
2023/10/11 11:07:23;;;;;;;5.23;1.60;;;36.30;48.50;;;;;;5036060;28;20690;-74
2023/10/11 11:09:54;;;;;;;5.70;2.10;;;36.20;47.80;;;;;;5053427;28;20208;-74
2023/10/11 11:12:28;;;;;;;5.30;2.63;;;36.10;48.20;;;;;;5034533;28;20580;-74
2023/10/11 11:15:00;;;;;;;6.17;2.00;;;36.00;47.80;;;;;;5045867;28;20591;-74
2023/10/11 11:17:47;;;;;;;3.67;1.57;;;35.90;47.80;;;;;;5046081;28;20636;-75
2023/10/11 11:22:46;;;;;;;4.07;2.20;;;35.60;47.70;;;;;;5025774;28;20588;-76
2023/10/11 11:25:26;;;;;;;4.43;1.60;;;35.60;47.70;;;;;;5060597;28;20598;-75
2023/10/11 11:28:15;;;;;;;5.20;2.07;;;35.50;47.30;;;;;;5034530;28;20182;-75
2023/10/11 11:31:09;;;;;;;5.70;1.43;;;35.30;47.30;;;;;;5058824;28;20642;-75
2023/10/11 11:33:36;;;;;;;3.40;1.97;;;35.20;47.30;;;;;;5057720;28;20674;-75
2023/10/11 11:36:11;;;;;;;3.90;1.63;;;35.20;47.40;;;;;;5031831;28;21169;-75
2023/10/11 11:38:37;;;;;;;4.87;1.77;;;35.10;47.00;;;;;;5052366;28;20590;-75
2023/10/11 11:41:15;;;;;;;6.33;1.87;;;35.00;47.40;;;;;;5046535;28;20594;-75
2023/10/11 11:43:41;;;;;;;5.10;2.23;;;34.90;47.40;;;;;;5037466;28;20707;-75
2023/10/11 11:46:06;;;;;;;5.43;2.00;;;34.80;47.00;;;;;;5049395;28;21156;-75
2023/10/11 11:48:41;;;;;;;4.73;2.83;;;34.80;47.20;;;;;;5050737;28;20190;-76
2023/10/11 11:51:13;;;;;;;7.20;3.40;;;34.70;47.20;;;;;;5014486;28;20719;-73
2023/10/11 11:53:48;;;;;;;5.93;2.40;;;34.70;46.70;;;;;;5050863;28;20948;-73
2023/10/11 11:56:14;;;;;;;9.43;2.40;;;34.50;46.10;;;;;;5035159;28;21163;-73
2023/10/11 11:58:46;;;;;;;4.20;1.80;;;34.40;46.30;;;;;;5042834;28;20698;-74
2023/10/11 12:01:17;;;;;;;3.70;1.80;;;34.20;46.90;;;;;;5048059;28;20922;-74
2023/10/11 12:03:52;;;;;;;6.93;2.80;;;34.00;46.30;;;;;;5046277;28;20651;-74
2023/10/11 12:06:24;;;;;;;5.13;2.67;;;33.80;46.50;;;;;;5047607;28;20579;-75
2023/10/11 12:08:59;;;;;;;5.33;2.17;;;33.60;46.80;;;;;;5034938;28;20638;-74
2023/10/11 12:11:30;;;;;;;4.73;2.10;;;33.50;46.50;;;;;;5035170;28;20595;-74
2023/10/11 12:14:03;;;;;;;7.50;3.07;;;33.50;46.60;;;;;;5022791;28;20623;-74
2023/10/11 12:16:29;;;;;;;11.47;2.73;;;33.40;46.50;;;;;;5015298;28;20699;-74
2023/10/11 12:18:59;;;;;;;6.90;3.03;;;33.30;46.40;;;;;;5026638;28;20701;-75
2023/10/11 12:21:28;;;;;;;5.50;2.27;;;33.10;46.20;;;;;;5035314;28;20586;-75
2023/10/11 12:23:57;;;;;;;14.90;3.20;;;33.00;45.90;;;;;;5052262;28;20594;-74
2023/10/11 12:26:26;;;;;;;6.90;2.37;;;32.80;45.80;;;;;;5027090;28;20627;-74
2023/10/11 12:28:52;;;;;;;7.07;2.60;;;32.60;45.90;;;;;;5034314;28;20622;-75
2023/10/11 12:31:17;;;;;;;6.60;3.00;;;32.40;45.90;;;;;;5035027;28;20605;-74
2023/10/11 12:33:44;;;;;;;17.63;3.13;;;32.10;45.80;;;;;;5034809;28;20209;-75
2023/10/11 12:36:32;;;;;;;12.70;2.80;;;31.90;46.00;;;;;;5030171;28;20186;-74
2023/10/11 12:38:58;;;;;;;9.37;2.97;;;31.70;46.20;;;;;;5033710;28;20674;-74
2023/10/11 12:41:23;;;;;;;10.47;2.90;;;31.50;46.30;;;;;;5052273;28;21212;-74
2023/10/11 12:43:49;;;;;;;9.97;2.50;;;31.30;46.90;;;;;;5033937;28;20647;-74
2023/10/11 12:46:16;;;;;;;8.30;3.20;;;31.10;46.40;;;;;;5033948;28;20553;-73
2023/10/11 12:48:42;;;;;;;7.90;2.40;;;30.80;46.60;;;;;;5033792;28;20212;-73
2023/10/11 12:51:08;;;;;;;7.00;2.63;;;30.70;47.00;;;;;;5051821;28;20614;-74
2023/10/11 12:53:35;;;;;;;9.50;3.40;;;30.50;47.20;;;;;;5033301;28;20676;-73
2023/10/11 12:56:00;;;;;;;12.83;3.20;;;30.30;47.30;;;;;;5051031;28;20211;-74
2023/10/11 12:58:39;;;;;;;6.43;2.50;;;30.10;47.50;;;;;;5051719;28;21415;-73
2023/10/11 13:01:11;;;;;;;15.03;5.80;;;29.90;47.70;;;;;;5033877;28;20177;-74
2023/10/11 13:03:38;;;;;;;9.80;4.90;;;29.80;47.90;;;;;;5033558;28;21172;-72
2023/10/11 13:06:05;;;;;;;10.57;2.67;;;29.60;48.20;;;;;;5033561;28;20601;-74
2023/10/11 13:08:33;;;;;;;8.10;3.50;;;29.40;48.40;;;;;;5050236;28;20652;-73
2023/10/11 13:11:00;;;;;;;8.80;2.83;;;29.30;48.70;;;;;;5033480;28;21238;-74
2023/10/11 13:13:27;;;;;;;8.90;3.20;;;29.20;48.90;;;;;;5044224;28;20651;-75
2023/10/11 13:15:59;;;;;;;7.53;2.60;;;29.10;49.20;;;;;;5041302;28;20609;-75
2023/10/11 13:18:37;;;;;;;10.43;2.70;;;29.00;49.40;;;;;;5034689;28;20724;-74
2023/10/11 13:21:11;;;;;;;10.53;3.30;;;28.90;49.70;;;;;;5017164;28;20598;-74
2023/10/11 13:23:39;;;;;;;7.57;2.93;;;28.70;49.80;;;;;;5033142;28;20584;-74
2023/10/11 13:26:08;;;;;;;9.30;4.57;;;28.70;49.90;;;;;;5016906;28;20593;-74
2023/10/11 13:28:39;;;;;;;10.00;3.47;;;28.60;50.20;;;;;;5033984;28;20630;-75
2023/10/11 13:31:04;;;;;;;10.87;3.63;;;28.60;50.20;;;;;;5034510;28;20744;-74
2023/10/11 13:33:32;;;;;;;12.33;2.70;;;28.50;50.20;;;;;;5033178;28;20685;-75
2023/10/11 13:36:05;;;;;;;11.43;3.80;;;28.40;50.20;;;;;;5032256;28;20191;-74
2023/10/11 13:38:31;;;;;;;8.30;1.80;;;28.40;50.40;;;;;;5049676;28;20696;-73
2023/10/11 13:40:59;;;;;;;8.33;3.13;;;28.30;50.40;;;;;;5032987;28;20585;-74
2023/10/11 13:43:25;;;;;;;9.83;3.50;;;28.30;50.70;;;;;;5033129;28;20638;-74
2023/10/11 13:46:06;;;;;;;9.37;2.80;;;28.30;50.80;;;;;;5032549;28;20638;-73
2023/10/11 13:48:41;;;;;;;7.10;3.17;;;28.20;50.90;;;;;;5032767;28;20601;-72
2023/10/11 13:51:16;;;;;;;7.90;2.50;;;28.20;51.10;;;;;;5050899;28;20599;-72
2023/10/11 13:53:42;;;;;;;11.30;2.30;;;28.20;51.30;;;;;;5050559;28;20654;-72
2023/10/11 13:56:14;;;;;;;9.43;2.70;;;28.20;51.40;;;;;;5032652;28;20596;-72
2023/10/11 13:58:45;;;;;;;5.47;2.63;;;28.20;51.50;;;;;;5032357;28;20274;-71
2023/10/11 14:01:36;;;;;;;10.00;2.87;;;28.30;51.50;;;;;;5030645;28;20589;-72
2023/10/11 14:04:05;;;;;;;8.60;4.03;;;28.20;51.60;;;;;;5030452;28;20595;-73
2023/10/11 14:06:41;;;;;;;13.20;4.27;;;28.20;51.60;;;;;;5012871;28;20625;-73
2023/10/11 14:09:16;;;;;;;8.60;3.30;;;28.30;51.80;;;;;;5049536;28;20729;-73
2023/10/11 14:11:46;;;;;;;6.83;3.07;;;28.30;51.70;;;;;;5049587;28;20584;-72
2023/10/11 14:14:14;;;;;;;11.00;2.80;;;28.20;51.60;;;;;;5025742;28;20581;-72